Terminal Aerodrome Forecast
Issued by NWS

Home | Current Version | Previous Version | Text Only | Print | Product List | Glossary On
Versions: 1 2 3 4 5 6 7 8 9 10 11 12 13 14 15 16 17 18 19
000
FTAK31 PAJN 250523
TAFAGY
TAF
PAGY 250523Z 2506/2606 03016G30KT P6SM OVC070
     FM251200 02016G29KT 4SM -SHSN BKN030 OVC060
     FM252100 02014G25KT P6SM VCSH BKN050
     FM260200 02017G29KT P6SM BKN090
      AMD LTD TO CLD VIS AND WIND=

USA.gov is the U.S. government's official web portal to all federal, state and local government web resources and services.